Time,TemperatureF,DewpointF,PressureIn,WindDirection,WindDirectionDegrees,WindSpeedMPH,WindSpeedGustMPH,Humidity,HourlyPrecipIn,Conditions,Clouds,dailyrainin,SoftwareType,DateUTC
2013-03-16 00:11:00,30.7,28.1,29.60,SSW,202,2.7,-999.0,90,-99.99,,,0.00,Acu-Link.com,2013-03-16 04:11:00,
2013-03-16 00:41:00,31.3,27.0,29.61,SSW,202,2.7,-999.0,84,-99.99,,,0.00,Acu-Link.com,2013-03-16 04:41:00,
2013-03-16 00:56:00,30.9,26.4,29.61,WSW,247,6.3,-999.0,83,-99.99,,,0.00,Acu-Link.com,2013-03-16 04:56:00,
2013-03-16 01:12:00,31.5,26.4,29.61,NW,315,2.7,-999.0,81,-99.99,,,0.00,Acu-Link.com,2013-03-16 05:12:00,
2013-03-16 01:27:00,31.8,26.0,29.62,East,90,6.8,-999.0,79,-99.99,,,0.00,Acu-Link.com,2013-03-16 05:27:00,
2013-03-16 01:42:00,31.8,26.6,29.63,SE,135,2.7,-999.0,81,-99.99,,,0.00,Acu-Link.com,2013-03-16 05:42:00,
2013-03-16 01:57:00,31.3,26.7,29.64,SSE,157,1.7,-999.0,83,-99.99,,,0.00,Acu-Link.com,2013-03-16 05:57:00,
2013-03-16 02:12:00,30.6,26.9,29.63,NNE,22,4.2,-999.0,86,-99.99,,,0.00,Acu-Link.com,2013-03-16 06:12:00,
2013-03-16 02:28:00,30.4,26.2,29.65,NNE,22,0.0,-999.0,84,-99.99,,,0.00,Acu-Link.com,2013-03-16 06:28:00,
2013-03-16 02:43:00,30.4,24.4,29.65,South,180,4.2,-999.0,78,-99.99,,,0.00,Acu-Link.com,2013-03-16 06:43:00,
2013-03-16 02:58:00,30.2,24.2,29.65,NNW,337,2.2,-999.0,78,-99.99,,,0.00,Acu-Link.com,2013-03-16 06:58:00,
2013-03-16 03:13:00,30.0,24.0,29.66,NNE,22,1.7,-999.0,78,-99.99,,,0.00,Acu-Link.com,2013-03-16 07:13:00,
2013-03-16 03:28:00,30.2,23.9,29.66,NNE,22,3.2,-999.0,77,-99.99,,,0.00,Acu-Link.com,2013-03-16 07:28:00,
2013-03-16 03:44:00,30.0,23.4,29.67,East,90,2.7,-999.0,76,-99.99,,,0.00,Acu-Link.com,2013-03-16 07:44:00,
2013-03-16 03:59:00,29.5,22.9,29.68,SSE,157,1.1,-999.0,76,-99.99,,,0.00,Acu-Link.com,2013-03-16 07:59:00,
2013-03-16 04:14:00,29.1,22.5,29.67,WNW,292,2.2,-999.0,76,-99.99,,,0.00,Acu-Link.com,2013-03-16 08:14:00,
2013-03-16 04:29:00,28.8,22.5,29.70,ESE,112,1.1,-999.0,77,-99.99,,,0.00,Acu-Link.com,2013-03-16 08:29:00,
2013-03-16 04:44:00,27.7,22.4,29.69,NW,315,0.0,-999.0,80,-99.99,,,0.00,Acu-Link.com,2013-03-16 08:44:00,
2013-03-16 04:59:00,27.5,22.4,29.69,WSW,247,0.0,-999.0,81,-99.99,,,0.00,Acu-Link.com,2013-03-16 08:59:00,
2013-03-16 05:15:00,26.6,21.6,29.71,NNE,22,2.2,-999.0,81,-99.99,,,0.00,Acu-Link.com,2013-03-16 09:15:00,
2013-03-16 05:30:00,26.2,18.7,29.70,East,90,0.0,-999.0,73,-99.99,,,0.00,Acu-Link.com,2013-03-16 09:30:00,
2013-03-16 05:45:00,26.6,17.8,29.72,ENE,67,0.0,-999.0,69,-99.99,,,0.00,Acu-Link.com,2013-03-16 09:45:00,
2013-03-16 06:00:00,27.3,16.0,29.72,South,180,0.0,-999.0,62,-99.99,,,0.00,Acu-Link.com,2013-03-16 10:00:00,
2013-03-16 06:15:00,26.8,15.6,29.72,NE,45,1.1,-999.0,62,-99.99,,,0.00,Acu-Link.com,2013-03-16 10:15:00,
2013-03-16 06:31:00,26.8,15.2,29.72,NNE,22,1.7,-999.0,61,-99.99,,,0.00,Acu-Link.com,2013-03-16 10:31:00,
2013-03-16 07:01:00,25.9,15.4,29.73,NE,45,0.0,-999.0,64,-99.99,,,0.00,Acu-Link.com,2013-03-16 11:01:00,
2013-03-16 07:16:00,25.3,15.6,29.74,ESE,112,0.0,-999.0,66,-99.99,,,0.00,Acu-Link.com,2013-03-16 11:16:00,
2013-03-16 07:31:00,25.2,16.5,29.73,East,90,0.0,-999.0,69,-99.99,,,0.00,Acu-Link.com,2013-03-16 11:31:00,
2013-03-16 07:47:00,25.7,16.6,29.74,North,0,0.0,-999.0,68,-99.99,,,0.00,Acu-Link.com,2013-03-16 11:47:00,
2013-03-16 08:02:00,26.1,17.0,29.75,SE,135,0.0,-999.0,68,-99.99,,,0.00,Acu-Link.com,2013-03-16 12:02:00,
2013-03-16 08:17:00,26.8,17.7,29.75,East,90,1.1,-999.0,68,-99.99,,,0.00,Acu-Link.com,2013-03-16 12:17:00,
2013-03-16 08:32:00,27.5,17.7,29.74,ENE,67,1.1,-999.0,66,-99.99,,,0.00,Acu-Link.com,2013-03-16 12:32:00,
2013-03-16 08:47:00,28.4,17.8,29.74,SW,225,3.2,-999.0,64,-99.99,,,0.00,Acu-Link.com,2013-03-16 12:47:00,
2013-03-16 09:03:00,28.9,16.4,29.73,NE,45,1.7,-999.0,59,-99.99,,,0.00,Acu-Link.com,2013-03-16 13:03:00,
2013-03-16 09:18:00,29.8,15.6,29.74,ESE,112,3.2,-999.0,55,-99.99,,,0.00,Acu-Link.com,2013-03-16 13:18:00,
2013-03-16 09:33:00,29.5,14.9,29.75,NE,45,2.2,-999.0,54,-99.99,,,0.00,Acu-Link.com,2013-03-16 13:33:00,
2013-03-16 09:48:00,30.7,16.0,29.74,ENE,67,4.7,-999.0,54,-99.99,,,0.00,Acu-Link.com,2013-03-16 13:48:00,
2013-03-16 10:03:00,30.7,15.2,29.74,SSW,202,1.7,-999.0,52,-99.99,,,0.00,Acu-Link.com,2013-03-16 14:03:00,
2013-03-16 10:19:00,30.9,13.1,29.75,SSW,202,5.8,-999.0,47,-99.99,,,0.00,Acu-Link.com,2013-03-16 14:19:00,
2013-03-16 10:34:00,31.6,13.2,29.73,NW,315,4.2,-999.0,46,-99.99,,,0.00,Acu-Link.com,2013-03-16 14:34:00,
2013-03-16 10:49:00,31.6,11.7,29.74,NE,45,4.2,-999.0,43,-99.99,,,0.00,Acu-Link.com,2013-03-16 14:49:00,
2013-03-16 11:04:00,32.2,12.2,29.74,SSW,202,2.7,-999.0,43,-99.99,,,0.00,Acu-Link.com,2013-03-16 15:04:00,
2013-03-16 11:19:00,31.6,12.2,29.74,SSW,202,4.2,-999.0,44,-99.99,,,0.00,Acu-Link.com,2013-03-16 15:19:00,
2013-03-16 11:34:00,33.1,12.5,29.73,SSW,202,2.2,-999.0,42,-99.99,,,0.00,Acu-Link.com,2013-03-16 15:34:00,
2013-03-16 11:50:00,33.1,12.5,29.73,SW,225,0.0,-999.0,42,-99.99,,,0.00,Acu-Link.com,2013-03-16 15:50:00,
2013-03-16 12:05:00,32.9,12.4,29.73,ENE,67,2.7,-999.0,42,-99.99,,,0.00,Acu-Link.com,2013-03-16 16:05:00,
2013-03-16 12:20:00,33.3,11.6,29.73,SSW,202,3.7,-999.0,40,-99.99,,,0.00,Acu-Link.com,2013-03-16 16:20:00,
2013-03-16 12:35:00,33.8,11.5,29.73,East,90,2.7,-999.0,39,-99.99,,,0.00,Acu-Link.com,2013-03-16 16:35:00,
2013-03-16 12:50:00,33.8,10.9,29.71,NNE,22,2.7,-999.0,38,-99.99,,,0.00,Acu-Link.com,2013-03-16 16:50:00,
2013-03-16 13:36:00,36.5,10.8,29.71,NNW,337,1.1,-999.0,34,-99.99,,,0.00,Acu-Link.com,2013-03-16 17:36:00,
2013-03-16 13:51:00,37.8,11.3,29.70,SSW,202,3.2,-999.0,33,-99.99,,,0.00,Acu-Link.com,2013-03-16 17:51:00,
2013-03-16 14:07:00,35.6,10.7,29.69,East,90,2.7,-999.0,35,-99.99,,,0.00,Acu-Link.com,2013-03-16 18:07:00,
2013-03-16 14:22:00,37.0,13.2,29.69,SE,135,3.7,-999.0,37,-99.99,,,0.00,Acu-Link.com,2013-03-16 18:22:00,
2013-03-16 14:37:00,39.4,13.4,29.69,SW,225,3.2,-999.0,34,-99.99,,,0.00,Acu-Link.com,2013-03-16 18:37:00,
2013-03-16 14:52:00,38.1,10.2,29.70,NW,315,1.7,-999.0,31,-99.99,,,0.00,Acu-Link.com,2013-03-16 18:52:00,
2013-03-16 15:07:00,38.3,11.1,29.70,NNE,22,2.2,-999.0,32,-99.99,,,0.00,Acu-Link.com,2013-03-16 19:07:00,
2013-03-16 15:23:00,37.8,12.0,29.69,WSW,247,2.7,-999.0,34,-99.99,,,0.00,Acu-Link.com,2013-03-16 19:23:00,
2013-03-16 15:38:00,38.5,12.6,29.70,NNE,22,4.2,-999.0,34,-99.99,,,0.00,Acu-Link.com,2013-03-16 19:38:00,
2013-03-16 15:53:00,38.3,11.7,29.69,ESE,112,2.2,-999.0,33,-99.99,,,0.00,Acu-Link.com,2013-03-16 19:53:00,
2013-03-16 16:09:00,39.7,13.0,29.68,South,180,1.1,-999.0,33,-99.99,,,0.00,Acu-Link.com,2013-03-16 20:09:00,
2013-03-16 16:24:00,38.7,12.8,29.67,East,90,3.2,-999.0,34,-99.99,,,0.00,Acu-Link.com,2013-03-16 20:24:00,
2013-03-16 16:39:00,41.9,12.8,29.67,SSW,202,2.7,-999.0,30,-99.99,,,0.00,Acu-Link.com,2013-03-16 20:39:00,
2013-03-16 16:54:00,44.6,12.7,29.68,SSW,202,3.7,-999.0,27,-99.99,,,0.00,Acu-Link.com,2013-03-16 20:54:00,
2013-03-16 17:09:00,41.0,13.4,29.68,WSW,247,0.0,-999.0,32,-99.99,,,0.00,Acu-Link.com,2013-03-16 21:09:00,
2013-03-16 17:25:00,39.7,12.3,29.67,NNW,337,1.1,-999.0,32,-99.99,,,0.00,Acu-Link.com,2013-03-16 21:25:00,
2013-03-16 17:40:00,39.7,13.7,29.67,North,0,2.2,-999.0,34,-99.99,,,0.00,Acu-Link.com,2013-03-16 21:40:00,
2013-03-16 17:55:00,42.4,13.9,29.66,SSW,202,2.7,-999.0,31,-99.99,,,0.00,Acu-Link.com,2013-03-16 21:55:00,
2013-03-16 18:10:00,39.0,13.0,29.68,SW,225,0.0,-999.0,34,-99.99,,,0.00,Acu-Link.com,2013-03-16 22:10:00,
2013-03-16 18:25:00,37.6,13.1,29.67,South,180,1.1,-999.0,36,-99.99,,,0.00,Acu-Link.com,2013-03-16 22:25:00,
2013-03-16 18:41:00,36.7,14.1,29.69,SSW,202,1.1,-999.0,39,-99.99,,,0.00,Acu-Link.com,2013-03-16 22:41:00,
2013-03-16 18:56:00,36.5,13.3,29.69,East,90,0.0,-999.0,38,-99.99,,,0.00,Acu-Link.com,2013-03-16 22:56:00,
2013-03-16 19:11:00,36.0,12.9,29.69,NE,45,0.0,-999.0,38,-99.99,,,0.00,Acu-Link.com,2013-03-16 23:11:00,
2013-03-16 19:27:00,35.4,12.3,29.69,SSW,202,0.0,-999.0,38,-99.99,,,0.00,Acu-Link.com,2013-03-16 23:27:00,
2013-03-16 19:42:00,35.2,12.2,29.70,NNE,22,2.7,-999.0,38,-99.99,,,0.00,Acu-Link.com,2013-03-16 23:42:00,
2013-03-16 19:57:00,34.9,12.5,29.70,North,0,0.0,-999.0,39,-99.99,,,0.00,Acu-Link.com,2013-03-16 23:57:00,
2013-03-16 20:12:00,34.7,13.4,29.71,SW,225,0.0,-999.0,41,-99.99,,,0.00,Acu-Link.com,2013-03-17 00:12:00,
2013-03-16 20:27:00,34.3,12.5,29.71,NW,315,0.0,-999.0,40,-99.99,,,0.00,Acu-Link.com,2013-03-17 00:27:00,
2013-03-16 20:43:00,34.2,13.5,29.72,South,180,0.0,-999.0,42,-99.99,,,0.00,Acu-Link.com,2013-03-17 00:43:00,
2013-03-16 20:58:00,33.8,13.7,29.72,NE,45,0.0,-999.0,43,-99.99,,,0.00,Acu-Link.com,2013-03-17 00:58:00,
2013-03-16 21:13:00,33.6,13.0,29.72,North,0,0.0,-999.0,42,-99.99,,,0.00,Acu-Link.com,2013-03-17 01:13:00,
2013-03-16 21:28:00,33.4,13.9,29.74,East,90,0.0,-999.0,44,-99.99,,,0.00,Acu-Link.com,2013-03-17 01:28:00,
2013-03-16 21:43:00,33.1,13.1,29.73,East,90,0.0,-999.0,43,-99.99,,,0.00,Acu-Link.com,2013-03-17 01:43:00,
2013-03-16 21:59:00,32.9,13.4,29.75,East,90,0.0,-999.0,44,-99.99,,,0.00,Acu-Link.com,2013-03-17 01:59:00,
2013-03-16 22:14:00,32.7,13.2,29.75,East,90,0.0,-999.0,44,-99.99,,,0.00,Acu-Link.com,2013-03-17 02:14:00,
2013-03-16 22:29:00,32.5,14.0,29.74,East,90,0.0,-999.0,46,-99.99,,,0.00,Acu-Link.com,2013-03-17 02:29:00,
2013-03-16 22:44:00,32.5,14.0,29.75,SSW,202,0.0,-999.0,46,-99.99,,,0.00,Acu-Link.com,2013-03-17 02:44:00,
2013-03-16 22:59:00,32.4,14.0,29.76,SSW,202,0.0,-999.0,46,-99.99,,,0.00,Acu-Link.com,2013-03-17 02:59:00,
2013-03-16 23:15:00,32.4,14.4,29.77,ESE,112,0.0,-999.0,47,-99.99,,,0.00,Acu-Link.com,2013-03-17 03:15:00,
2013-03-16 23:30:00,32.2,15.2,29.77,SW,225,0.0,-999.0,49,-99.99,,,0.00,Acu-Link.com,2013-03-17 03:30:00,
2013-03-16 23:45:00,31.8,16.6,29.77,SW,225,0.0,-999.0,53,-99.99,,,0.00,Acu-Link.com,2013-03-17 03:45:00,